createdAt,value
2017-09-14T00:00:25.293Z,99.99
2017-09-14T00:01:25.313Z,99.99
2017-09-14T00:02:25.629Z,99.99
2017-09-14T00:03:25.267Z,99.99
2017-09-14T00:04:25.273Z,99.99
2017-09-14T00:05:25.255Z,99.99
2017-09-14T00:06:25.582Z,99.99
2017-09-14T00:07:25.232Z,99.99
2017-09-14T00:08:25.222Z,99.99
2017-09-14T00:09:25.211Z,99.99
2017-09-14T00:10:25.206Z,99.99
2017-09-14T00:11:25.245Z,99.99
2017-09-14T00:12:25.186Z,99.99
2017-09-14T00:13:25.179Z,99.99
2017-09-14T00:14:25.515Z,99.99
2017-09-14T00:15:25.492Z,99.99
2017-09-14T00:16:25.169Z,99.99
2017-09-14T00:17:25.153Z,99.99
2017-09-14T00:18:25.131Z,99.99
2017-09-14T00:19:25.123Z,99.99
2017-09-14T00:20:25.126Z,99.99
2017-09-14T00:21:25.103Z,99.99
2017-09-14T00:22:25.426Z,99.99
2017-09-14T00:23:25.418Z,99.99
2017-09-14T00:24:25.405Z,99.99
2017-09-14T00:25:25.069Z,99.99
2017-09-14T00:26:25.068Z,99.99
2017-09-14T00:27:25.062Z,99.99
2017-09-14T00:28:25.059Z,99.99
2017-09-14T00:29:25.036Z,99.99
2017-09-14T00:30:25.025Z,99.99
2017-09-14T00:31:25.028Z,99.99
2017-09-14T00:32:25.007Z,99.99
2017-09-14T00:33:25.325Z,99.99
2017-09-14T00:34:24.989Z,99.99
2017-09-14T00:35:24.982Z,99.99
2017-09-14T00:36:24.991Z,99.99
2017-09-14T00:37:24.970Z,99.99
2017-09-14T00:38:24.959Z,99.99
2017-09-14T00:39:24.962Z,99.99
2017-09-14T00:40:24.935Z,99.99
2017-09-14T00:41:25.287Z,99.99
2017-09-14T00:42:24.919Z,99.99
2017-09-14T00:43:24.908Z,99.99
2017-09-14T00:44:24.904Z,99.99
2017-09-14T00:45:24.893Z,99.99
2017-09-14T00:46:25.231Z,99.99
2017-09-14T00:47:24.876Z,99.99
2017-09-14T00:48:25.230Z,99.99
2017-09-14T00:49:24.858Z,99.99
2017-09-14T00:50:24.847Z,99.99
2017-09-14T00:51:25.167Z,99.99
2017-09-14T00:52:24.838Z,99.99
2017-09-14T00:53:24.823Z,99.99
2017-09-14T00:54:25.142Z,99.99
2017-09-14T00:55:24.802Z,99.99
2017-09-14T00:56:24.827Z,99.99
2017-09-14T00:57:24.787Z,99.99
2017-09-14T00:58:25.106Z,99.99
2017-09-14T00:59:24.786Z,99.99
2017-09-14T01:00:25.093Z,99.99
2017-09-14T01:01:24.757Z,99.99
2017-09-14T01:02:25.111Z,99.99
2017-09-14T01:03:24.747Z,99.99
2017-09-14T01:04:24.725Z,99.99
2017-09-14T01:05:24.716Z,99.99
2017-09-14T01:06:24.728Z,99.99
2017-09-14T01:07:24.698Z,99.99
2017-09-14T01:08:24.729Z,99.99
2017-09-14T01:09:25.008Z,99.99
2017-09-14T01:10:25.014Z,99.99
2017-09-14T01:11:24.992Z,99.99
2017-09-14T01:12:24.698Z,99.99
2017-09-14T01:13:24.646Z,99.99
2017-09-14T01:14:24.652Z,99.99
2017-09-14T01:15:24.957Z,99.99
2017-09-14T01:16:24.946Z,99.99
2017-09-14T01:17:24.678Z,99.99
2017-09-14T01:18:25.204Z,99.99
2017-09-14T01:19:24.717Z,99.99
2017-09-14T01:20:25.155Z,99.99
2017-09-14T01:21:24.574Z,99.99
2017-09-14T01:22:25.295Z,99.99
2017-09-14T01:23:25.127Z,99.99
2017-09-14T01:24:24.718Z,99.99
2017-09-14T01:25:24.690Z,99.99
2017-09-14T01:26:24.529Z,99.99
2017-09-14T01:27:24.668Z,99.99
2017-09-14T01:28:24.513Z,99.99
2017-09-14T01:29:24.689Z,99.99
2017-09-14T01:30:24.822Z,99.99
2017-09-14T01:31:24.598Z,99.99
2017-09-14T01:32:24.991Z,99.99
2017-09-14T01:33:24.577Z,99.99
2017-09-14T01:34:24.490Z,99.99
2017-09-14T01:35:25.021Z,99.99
2017-09-14T01:36:24.460Z,99.99
2017-09-14T01:37:24.434Z,99.99
2017-09-14T01:38:24.647Z,99.99
2017-09-14T01:39:24.511Z,99.99
2017-09-14T01:40:24.558Z,99.99
2017-09-14T01:41:24.918Z,99.99
2017-09-14T01:42:24.551Z,99.99
2017-09-14T01:43:24.381Z,99.99
2017-09-14T01:44:24.515Z,99.99
2017-09-14T01:45:24.809Z,99.99
2017-09-14T01:46:24.538Z,99.99
2017-09-14T01:47:24.561Z,99.99
2017-09-14T01:48:24.465Z,99.99
2017-09-14T01:49:24.537Z,99.99
2017-09-14T01:50:24.479Z,99.99
2017-09-14T01:51:24.448Z,99.99
2017-09-14T01:52:24.419Z,99.99
2017-09-14T01:53:24.312Z,99.99
2017-09-14T01:54:24.435Z,99.99
2017-09-14T01:55:24.274Z,99.99
2017-09-14T01:56:24.609Z,99.99
2017-09-14T01:57:24.743Z,99.99
2017-09-14T01:58:24.418Z,99.99
2017-09-14T01:59:24.241Z,99.99
2017-09-14T02:00:24.705Z,99.99
2017-09-14T02:01:24.571Z,99.99
2017-09-14T02:02:24.557Z,99.99
2017-09-14T02:03:24.206Z,99.99
2017-09-14T02:04:24.198Z,99.99
2017-09-14T02:05:24.189Z,99.99
2017-09-14T02:06:24.509Z,99.99
2017-09-14T02:07:24.499Z,99.99
2017-09-14T02:08:24.162Z,99.99
2017-09-14T02:09:24.152Z,99.99
2017-09-14T02:10:24.143Z,99.99
2017-09-14T02:11:24.463Z,99.99
2017-09-14T02:12:24.127Z,99.99
2017-09-14T02:13:24.116Z,99.99
2017-09-14T02:14:24.438Z,99.99
2017-09-14T02:15:24.099Z,99.99
2017-09-14T02:16:24.097Z,99.99
2017-09-14T02:17:24.084Z,99.99
2017-09-14T02:18:24.402Z,99.99
2017-09-14T02:19:24.076Z,99.99
2017-09-14T02:20:24.057Z,99.99
2017-09-14T02:21:24.049Z,99.99
2017-09-14T02:22:24.369Z,99.99
2017-09-14T02:23:24.031Z,99.99
2017-09-14T02:24:24.023Z,99.99
2017-09-14T02:25:24.013Z,99.99
2017-09-14T02:26:24.023Z,99.99
2017-09-14T02:27:23.996Z,99.99
2017-09-14T02:28:24.322Z,99.99
2017-09-14T02:29:24.001Z,99.99
2017-09-14T02:30:23.969Z,99.99
2017-09-14T02:31:23.971Z,99.99
2017-09-14T02:32:23.953Z,99.99
2017-09-14T02:33:24.274Z,99.99
2017-09-14T02:34:23.935Z,99.99
2017-09-14T02:35:23.927Z,99.99
2017-09-14T02:36:23.936Z,99.99
2017-09-14T02:37:23.909Z,99.99
2017-09-14T02:38:23.903Z,99.99
2017-09-14T02:39:23.891Z,99.99
2017-09-14T02:40:23.883Z,99.99
2017-09-14T02:41:24.202Z,99.99
2017-09-14T02:42:23.882Z,99.99
2017-09-14T02:43:23.875Z,99.99
2017-09-14T02:44:24.177Z,99.99
2017-09-14T02:45:24.176Z,99.99
2017-09-14T02:46:25.462Z,99.99
2017-09-14T02:47:24.149Z,99.99
2017-09-14T02:48:23.833Z,99.99
2017-09-14T02:49:23.803Z,99.99
2017-09-14T02:50:23.794Z,99.99
2017-09-14T02:51:24.116Z,99.99
2017-09-14T02:52:23.804Z,99.99
2017-09-14T02:53:23.770Z,99.99
2017-09-14T02:54:24.091Z,99.99
2017-09-14T02:55:23.751Z,99.99
2017-09-14T02:56:23.756Z,99.99
2017-09-14T02:57:23.735Z,99.99
2017-09-14T02:58:24.055Z,99.99
2017-09-14T02:59:23.719Z,99.99
2017-09-14T03:00:23.731Z,99.99
2017-09-14T03:01:24.027Z,99.99
2017-09-14T03:02:23.690Z,99.99
2017-09-14T03:03:23.693Z,99.99
2017-09-14T03:04:24.002Z,99.99
2017-09-14T03:05:23.683Z,99.99
2017-09-14T03:06:23.655Z,99.99
2017-09-14T03:07:23.977Z,99.99
2017-09-14T03:08:23.968Z,99.99
2017-09-14T03:09:23.629Z,99.99
2017-09-14T03:10:23.622Z,99.99
2017-09-14T03:11:23.622Z,99.99
2017-09-14T03:12:23.647Z,99.99
2017-09-14T03:13:23.609Z,99.99
2017-09-14T03:14:23.916Z,99.99
2017-09-14T03:15:23.595Z,99.99
2017-09-14T03:16:23.570Z,99.99
2017-09-14T03:17:23.888Z,99.99
2017-09-14T03:18:23.565Z,99.99
2017-09-14T03:19:23.545Z,99.99
2017-09-14T03:20:23.535Z,99.99
2017-09-14T03:21:23.876Z,99.99
2017-09-14T03:22:23.848Z,99.99
2017-09-14T03:23:23.511Z,99.99
2017-09-14T03:24:23.870Z,99.99
2017-09-14T03:25:23.492Z,99.99
2017-09-14T03:26:23.485Z,99.99
2017-09-14T03:27:23.475Z,99.99
2017-09-14T03:28:23.476Z,99.99
2017-09-14T03:29:23.461Z,99.99
2017-09-14T03:30:23.448Z,99.99
2017-09-14T03:31:23.768Z,99.99
2017-09-14T03:32:23.760Z,99.99
2017-09-14T03:33:23.425Z,99.99
2017-09-14T03:34:23.415Z,99.99
2017-09-14T03:35:23.742Z,99.99
2017-09-14T03:36:23.439Z,99.99
2017-09-14T03:37:23.387Z,99.99
2017-09-14T03:38:23.711Z,99.99
2017-09-14T03:39:23.370Z,99.99
2017-09-14T03:40:23.694Z,99.99
2017-09-14T03:41:23.690Z,99.99
2017-09-14T03:42:23.344Z,99.99
2017-09-14T03:43:23.336Z,99.99
2017-09-14T03:44:23.655Z,99.99
2017-09-14T03:45:23.321Z,99.99
2017-09-14T03:46:23.311Z,99.99
2017-09-14T03:47:23.632Z,99.99
2017-09-14T03:48:23.310Z,99.99
2017-09-14T03:49:23.285Z,99.99
2017-09-14T03:50:23.609Z,99.99
2017-09-14T03:51:23.268Z,99.99
2017-09-14T03:52:24.087Z,99.99
2017-09-14T03:53:23.577Z,99.99
2017-09-14T03:54:23.241Z,99.99
2017-09-14T03:55:23.570Z,99.99
2017-09-14T03:56:23.567Z,99.99
2017-09-14T03:57:23.215Z,99.99
2017-09-14T03:58:23.207Z,99.99
2017-09-14T03:59:23.525Z,99.99
2017-09-14T04:00:23.517Z,99.99
2017-09-14T04:01:23.180Z,99.99
2017-09-14T04:02:23.178Z,99.99
2017-09-14T04:03:23.496Z,99.99
2017-09-14T04:04:23.172Z,99.99
2017-09-14T04:05:23.154Z,99.99
2017-09-14T04:06:23.187Z,99.99
2017-09-14T04:07:23.126Z,99.99
2017-09-14T04:08:23.120Z,99.99
2017-09-14T04:09:23.110Z,99.99
2017-09-14T04:10:23.100Z,99.99
2017-09-14T04:11:23.093Z,99.99
2017-09-14T04:12:23.086Z,99.99
2017-09-14T04:13:23.083Z,99.99
2017-09-14T04:14:23.202Z,99.99
2017-09-14T04:15:23.060Z,99.99
2017-09-14T04:16:23.060Z,99.99
2017-09-14T04:17:23.045Z,99.99
2017-09-14T04:18:23.053Z,99.99
2017-09-14T04:19:23.354Z,99.99
2017-09-14T04:20:23.026Z,99.99
2017-09-14T04:21:23.334Z,99.99
2017-09-14T04:22:22.998Z,99.99
2017-09-14T04:23:22.991Z,99.99
2017-09-14T04:24:23.310Z,99.99
2017-09-14T04:25:23.303Z,99.99
2017-09-14T04:26:22.965Z,99.99
2017-09-14T04:27:23.297Z,99.99
2017-09-14T04:28:22.947Z,99.99
2017-09-14T04:29:22.938Z,99.99
2017-09-14T04:30:23.271Z,99.99
2017-09-14T04:31:22.922Z,99.99
2017-09-14T04:32:23.241Z,99.99
2017-09-14T04:33:22.903Z,99.99
2017-09-14T04:34:22.894Z,99.99
2017-09-14T04:35:22.886Z,99.99
2017-09-14T04:36:22.877Z,99.99
2017-09-14T04:37:22.870Z,99.99
2017-09-14T04:38:22.860Z,99.99
2017-09-14T04:39:23.180Z,99.99
2017-09-14T04:40:23.173Z,99.99
2017-09-14T04:41:22.837Z,99.99
2017-09-14T04:42:22.826Z,99.99
2017-09-14T04:43:22.815Z,99.99
2017-09-14T04:44:23.151Z,99.99
2017-09-14T04:45:22.803Z,99.99
2017-09-14T04:46:22.791Z,99.99
2017-09-14T04:47:22.781Z,99.99
2017-09-14T04:48:22.788Z,99.99
2017-09-14T04:49:22.766Z,99.99
2017-09-14T04:50:23.087Z,99.99
2017-09-14T04:51:23.073Z,99.99
2017-09-14T04:52:23.083Z,99.99
2017-09-14T04:53:22.739Z,99.99
2017-09-14T04:54:23.050Z,99.99
2017-09-14T04:55:23.056Z,99.99
2017-09-14T04:56:22.702Z,99.99
2017-09-14T04:57:22.694Z,99.99
2017-09-14T04:58:22.684Z,99.99
2017-09-14T04:59:23.024Z,99.99
2017-09-14T05:00:22.667Z,99.99
2017-09-14T05:01:22.990Z,99.99
2017-09-14T05:02:22.976Z,99.99
2017-09-14T05:03:22.977Z,99.99
2017-09-14T05:04:22.648Z,99.99
2017-09-14T05:05:22.621Z,99.99
2017-09-14T05:06:22.613Z,99.99
2017-09-14T05:07:22.630Z,99.99
2017-09-14T05:08:22.596Z,99.99
2017-09-14T05:09:22.587Z,99.99
2017-09-14T05:10:22.907Z,99.99
2017-09-14T05:11:22.923Z,99.99
2017-09-14T05:12:22.565Z,99.99
2017-09-14T05:13:22.552Z,99.99
2017-09-14T05:14:22.546Z,99.99
2017-09-14T05:15:22.533Z,99.99
2017-09-14T05:16:22.554Z,99.99
2017-09-14T05:17:22.517Z,99.99
2017-09-14T05:18:22.863Z,99.99
2017-09-14T05:19:22.498Z,99.99
2017-09-14T05:20:22.817Z,99.99
2017-09-14T05:21:22.818Z,99.99
2017-09-14T05:22:22.470Z,99.99
2017-09-14T05:23:22.790Z,99.99
2017-09-14T05:24:22.472Z,99.99
2017-09-14T05:25:22.776Z,99.99
2017-09-14T05:26:22.770Z,99.99
2017-09-14T05:27:22.426Z,99.99
2017-09-14T05:28:22.417Z,99.99
2017-09-14T05:29:22.407Z,99.99
2017-09-14T05:30:22.400Z,99.99
2017-09-14T05:31:22.391Z,99.99
2017-09-14T05:32:22.382Z,99.99
2017-09-14T05:33:22.372Z,99.99
2017-09-14T05:34:22.362Z,99.99
2017-09-14T05:35:22.375Z,99.99
2017-09-14T05:36:22.674Z,99.99
2017-09-14T05:37:22.336Z,99.99
2017-09-14T05:38:22.329Z,99.99
2017-09-14T05:39:22.319Z,99.99
2017-09-14T05:40:22.310Z,99.99
2017-09-14T05:41:22.301Z,99.99
2017-09-14T05:42:22.620Z,99.99
2017-09-14T05:43:22.617Z,99.99
2017-09-14T05:44:22.606Z,99.99
2017-09-14T05:45:22.594Z,99.99
2017-09-14T05:46:22.583Z,99.99
2017-09-14T05:47:22.248Z,99.99
2017-09-14T05:48:22.241Z,99.99
2017-09-14T05:49:22.230Z,99.99
2017-09-14T05:50:22.223Z,99.99
2017-09-14T05:51:22.544Z,99.99
2017-09-14T05:52:22.557Z,99.99
2017-09-14T05:53:22.198Z,99.99
2017-09-14T05:54:22.186Z,99.99
2017-09-14T05:55:22.176Z,99.99
2017-09-14T05:56:22.172Z,99.99
2017-09-14T05:57:22.488Z,99.99
2017-09-14T05:58:22.482Z,99.99
2017-09-14T05:59:22.471Z,99.99
2017-09-14T06:00:22.147Z,99.99
2017-09-14T06:01:22.123Z,99.99
2017-09-14T06:02:22.116Z,99.99
2017-09-14T06:03:22.107Z,99.99
2017-09-14T06:04:22.098Z,99.99
2017-09-14T06:05:22.090Z,99.99
2017-09-14T06:06:22.430Z,99.99
2017-09-14T06:07:22.082Z,99.99
2017-09-14T06:08:22.390Z,99.99
2017-09-14T06:09:22.057Z,99.99
2017-09-14T06:10:22.045Z,99.99
2017-09-14T06:11:22.037Z,99.99
2017-09-14T06:12:22.026Z,99.99
2017-09-14T06:13:22.349Z,99.99
2017-09-14T06:14:22.337Z,99.99
2017-09-14T06:15:21.999Z,99.99
2017-09-14T06:16:21.990Z,99.99
2017-09-14T06:17:21.987Z,99.99
2017-09-14T06:18:21.975Z,99.99
2017-09-14T06:19:21.964Z,99.99
2017-09-14T06:20:22.287Z,99.99
2017-09-14T06:21:22.276Z,99.99
2017-09-14T06:22:21.939Z,99.99
2017-09-14T06:23:21.947Z,99.99
2017-09-14T06:24:22.256Z,99.99
2017-09-14T06:25:22.242Z,99.99
2017-09-14T06:26:21.907Z,99.99
2017-09-14T06:27:22.223Z,99.99
2017-09-14T06:28:21.897Z,99.99
2017-09-14T06:29:21.878Z,99.99
2017-09-14T06:30:21.870Z,99.99
2017-09-14T06:31:22.188Z,99.99
2017-09-14T06:32:21.857Z,99.99
2017-09-14T06:33:21.844Z,99.99
2017-09-14T06:34:21.851Z,99.99
2017-09-14T06:35:21.827Z,99.99
2017-09-14T06:36:21.815Z,99.99
2017-09-14T06:37:22.146Z,99.99
2017-09-14T06:38:21.800Z,99.99
2017-09-14T06:39:22.139Z,99.99
2017-09-14T06:40:21.783Z,99.99
2017-09-14T06:41:21.774Z,99.99
2017-09-14T06:42:21.765Z,99.99
2017-09-14T06:43:22.087Z,99.99
2017-09-14T06:44:21.748Z,99.99
2017-09-14T06:45:21.739Z,99.99
2017-09-14T06:46:22.060Z,99.99
2017-09-14T06:47:22.071Z,99.99
2017-09-14T06:48:21.713Z,99.99
2017-09-14T06:49:22.033Z,99.99
2017-09-14T06:50:21.697Z,99.99
2017-09-14T06:51:21.689Z,99.99
2017-09-14T06:52:21.680Z,99.99
2017-09-14T06:53:22.035Z,99.99
2017-09-14T06:54:21.662Z,99.99
2017-09-14T06:55:21.980Z,99.99
2017-09-14T06:56:21.645Z,99.99
2017-09-14T06:57:21.637Z,99.99
2017-09-14T06:58:21.957Z,99.99
2017-09-14T06:59:21.632Z,99.99
2017-09-14T07:00:21.611Z,99.99
2017-09-14T07:01:21.601Z,99.99
2017-09-14T07:02:21.592Z,99.99
2017-09-14T07:03:21.915Z,99.99
2017-09-14T07:04:21.576Z,99.99
2017-09-14T07:05:21.567Z,99.99
2017-09-14T07:06:21.574Z,99.99
2017-09-14T07:07:21.551Z,99.99
2017-09-14T07:08:21.557Z,99.99
2017-09-14T07:09:21.863Z,99.99
2017-09-14T07:10:21.853Z,99.99
2017-09-14T07:11:21.570Z,99.99
2017-09-14T07:12:21.507Z,99.99
2017-09-14T07:13:21.521Z,99.99
2017-09-14T07:14:21.826Z,99.99
2017-09-14T07:15:21.492Z,99.99
2017-09-14T07:16:21.802Z,99.99
2017-09-14T07:17:21.480Z,99.99
2017-09-14T07:18:21.455Z,99.99
2017-09-14T07:19:21.447Z,99.99
2017-09-14T07:20:21.479Z,99.99
2017-09-14T07:21:21.756Z,99.99
2017-09-14T07:22:21.424Z,99.99
2017-09-14T07:23:21.427Z,99.99
2017-09-14T07:24:21.402Z,99.99
2017-09-14T07:25:21.396Z,99.99
2017-09-14T07:26:21.388Z,99.99
2017-09-14T07:27:21.379Z,99.99
2017-09-14T07:28:21.384Z,99.99
2017-09-14T07:29:21.377Z,99.99
2017-09-14T07:30:21.352Z,99.99
2017-09-14T07:31:21.343Z,99.99
2017-09-14T07:32:21.669Z,99.99
2017-09-14T07:33:21.327Z,99.99
2017-09-14T07:34:21.321Z,99.99
2017-09-14T07:35:21.308Z,99.99
2017-09-14T07:36:21.304Z,99.99
2017-09-14T07:37:21.325Z,99.99
2017-09-14T07:38:21.287Z,99.99
2017-09-14T07:39:21.322Z,99.99
2017-09-14T07:40:21.422Z,99.99
2017-09-14T07:41:21.292Z,99.99
2017-09-14T07:42:21.771Z,99.99
2017-09-14T07:43:21.578Z,99.99
2017-09-14T07:44:21.564Z,99.99
2017-09-14T07:45:21.227Z,99.99
2017-09-14T07:46:21.218Z,99.99
2017-09-14T07:47:21.215Z,99.99
2017-09-14T07:48:21.206Z,99.99
2017-09-14T07:49:21.194Z,99.99
2017-09-14T07:50:21.513Z,99.99
2017-09-14T07:51:21.519Z,99.99
2017-09-14T07:52:21.498Z,99.99
2017-09-14T07:53:21.160Z,99.99
2017-09-14T07:54:21.153Z,99.99
2017-09-14T07:55:21.163Z,99.99
2017-09-14T07:56:21.136Z,99.99
2017-09-14T07:57:21.133Z,99.99
2017-09-14T07:58:21.120Z,99.99
2017-09-14T07:59:21.115Z,99.99
2017-09-14T08:00:21.128Z,97.94
2017-09-14T08:01:21.099Z,97.56
2017-09-14T08:02:21.419Z,98.51
2017-09-14T08:03:21.084Z,97.17
2017-09-14T08:04:21.073Z,95.84
2017-09-14T08:05:21.396Z,94.22
2017-09-14T08:06:21.062Z,95.56
2017-09-14T08:07:21.052Z,95.94
2017-09-14T08:08:21.069Z,93.55
2017-09-14T08:09:21.038Z,91.93
2017-09-14T08:10:21.360Z,92.6
2017-09-14T08:11:21.020Z,92.41
2017-09-14T08:12:21.362Z,93.17
2017-09-14T08:13:21.007Z,93.17
2017-09-14T08:14:21.334Z,94.7
2017-09-14T08:15:20.992Z,94.12
2017-09-14T08:16:21.312Z,93.27
2017-09-14T08:17:20.979Z,93.17
2017-09-14T08:18:20.969Z,93.55
2017-09-14T08:19:21.312Z,93.65
2017-09-14T08:20:20.956Z,92.22
2017-09-14T08:21:20.948Z,94.12
2017-09-14T08:22:21.273Z,94.03
2017-09-14T08:23:20.933Z,94.98
2017-09-14T08:24:21.269Z,94.12
2017-09-14T08:25:20.918Z,94.32
2017-09-14T08:26:21.238Z,96.41
2017-09-14T08:27:21.252Z,93.46
2017-09-14T08:28:20.897Z,94.7
2017-09-14T08:29:20.888Z,92.74
2017-09-14T08:30:21.228Z,91.5
2017-09-14T08:31:20.875Z,93.27
2017-09-14T08:32:21.194Z,91.17
2017-09-14T08:33:20.860Z,94.12
2017-09-14T08:34:20.850Z,95.17
2017-09-14T08:35:21.187Z,95.27
2017-09-14T08:36:20.839Z,93.08
2017-09-14T08:37:20.831Z,94.98
2017-09-14T08:38:21.188Z,94.12
2017-09-14T08:39:20.815Z,94.7
2017-09-14T08:40:20.825Z,95.56
2017-09-14T08:41:20.818Z,96.98
2017-09-14T08:42:20.800Z,96.13
2017-09-14T08:43:21.119Z,97.37
2017-09-14T08:44:20.776Z,97.37
2017-09-14T08:45:21.100Z,98.99
2017-09-14T08:46:20.762Z,99.99
2017-09-14T08:47:21.101Z,98.51
2017-09-14T08:48:20.768Z,97.56
2017-09-14T08:49:20.741Z,97.75
2017-09-14T08:50:21.062Z,95.94
2017-09-14T08:51:20.726Z,95.37
2017-09-14T08:52:20.719Z,96.89
2017-09-14T08:53:21.039Z,99.18
2017-09-14T08:54:20.703Z,98.32
2017-09-14T08:55:20.707Z,98.51
2017-09-14T08:56:20.686Z,98.32
2017-09-14T08:57:21.025Z,98.32
2017-09-14T08:58:20.673Z,98.32
2017-09-14T08:59:20.664Z,96.61
2017-09-14T09:00:20.673Z,96.89
2017-09-14T09:01:20.649Z,95.65
2017-09-14T09:02:20.975Z,98.13
2017-09-14T09:03:20.964Z,98.32
2017-09-14T09:04:20.965Z,99.18
2017-09-14T09:05:20.619Z,99.46
2017-09-14T09:06:20.610Z,97.17
2017-09-14T09:07:20.602Z,97.66
2017-09-14T09:08:20.598Z,97.66
2017-09-14T09:09:20.589Z,96.41
2017-09-14T09:10:20.597Z,97.56
2017-09-14T09:11:20.900Z,97.08
2017-09-14T09:12:20.566Z,97.75
2017-09-14T09:13:20.887Z,99.08
2017-09-14T09:14:20.550Z,99.56
2017-09-14T09:15:20.543Z,99.18
2017-09-14T09:16:20.535Z,98.61
2017-09-14T09:17:26.638Z,98.9
2017-09-14T09:18:20.849Z,99.99
2017-09-14T09:19:20.513Z,99.66
2017-09-14T09:20:20.505Z,99.99
2017-09-14T09:21:20.854Z,99.99
2017-09-14T09:22:20.490Z,98.51
2017-09-14T09:23:20.814Z,99.56
2017-09-14T09:24:20.477Z,99.99
2017-09-14T09:25:20.808Z,99.37
2017-09-14T09:26:20.799Z,99.99
2017-09-14T09:27:20.451Z,99.99
2017-09-14T09:28:20.775Z,99.99
2017-09-14T09:29:20.437Z,99.99
2017-09-14T09:30:20.430Z,99.99
2017-09-14T09:31:20.423Z,99.99
2017-09-14T09:32:20.414Z,99.99
2017-09-14T09:33:20.405Z,99.99
2017-09-14T09:34:20.398Z,99.99
2017-09-14T09:35:20.393Z,98.51
2017-09-14T09:36:20.385Z,98.99
2017-09-14T09:37:20.378Z,98.7
2017-09-14T09:38:20.367Z,98.51
2017-09-14T09:39:20.690Z,99.99
2017-09-14T09:40:20.354Z,99.99
2017-09-14T09:41:20.348Z,99.95
2017-09-14T09:42:20.666Z,99.99
2017-09-14T09:43:20.330Z,99.99
2017-09-14T09:44:20.685Z,98.8
2017-09-14T09:45:20.645Z,98.61
2017-09-14T09:46:20.635Z,99.18
2017-09-14T09:47:20.303Z,99.99
2017-09-14T09:48:20.292Z,98.18
2017-09-14T09:49:20.305Z,99.51
2017-09-14T09:50:20.279Z,99.99
2017-09-14T09:51:20.268Z,99.99
2017-09-14T09:52:20.594Z,99.99
2017-09-14T09:53:20.253Z,99.51
2017-09-14T09:54:20.245Z,99.51
2017-09-14T09:55:20.563Z,99.99
2017-09-14T09:56:20.558Z,99.99
2017-09-14T09:57:20.658Z,99.99
2017-09-14T09:58:20.212Z,99.99
2017-09-14T09:59:20.203Z,99.99
2017-09-14T10:00:20.219Z,99.99
2017-09-14T10:01:20.186Z,99.99
2017-09-14T10:02:20.190Z,99.99
2017-09-14T10:03:20.170Z,99.99
2017-09-14T10:04:20.164Z,99.99
2017-09-14T10:05:20.171Z,99.99
2017-09-14T10:06:20.153Z,99.99
2017-09-14T10:07:20.465Z,99.99
2017-09-14T10:08:20.132Z,99.99
2017-09-14T10:09:20.450Z,99.99
2017-09-14T10:10:20.463Z,99.99
2017-09-14T10:11:20.433Z,99.99
2017-09-14T10:12:20.120Z,99.99
2017-09-14T10:13:20.086Z,99.99
2017-09-14T10:14:20.409Z,99.99
2017-09-14T10:15:20.071Z,99.99
2017-09-14T10:16:20.394Z,99.99
2017-09-14T10:17:20.058Z,99.99
2017-09-14T10:18:20.049Z,99.99
2017-09-14T10:19:20.037Z,99.99
2017-09-14T10:20:20.037Z,99.99
2017-09-14T10:21:20.032Z,99.99
2017-09-14T10:22:20.011Z,99.99
2017-09-14T10:23:20.329Z,99.99
2017-09-14T10:24:20.336Z,99.99
2017-09-14T10:25:20.313Z,99.99
2017-09-14T10:26:19.978Z,99.99
2017-09-14T10:27:19.968Z,99.99
2017-09-14T10:28:19.973Z,99.99
2017-09-14T10:29:19.952Z,99.99
2017-09-14T10:30:19.957Z,99.99
2017-09-14T10:31:19.948Z,99.99
2017-09-14T10:32:19.928Z,99.99
2017-09-14T10:33:19.919Z,99.99
2017-09-14T10:34:19.910Z,99.99
2017-09-14T10:35:19.903Z,99.99
2017-09-14T10:36:20.223Z,99.99
2017-09-14T10:37:19.885Z,99.99
2017-09-14T10:38:19.888Z,99.99
2017-09-14T10:39:19.869Z,99.99
2017-09-14T10:40:19.861Z,99.99
2017-09-14T10:41:20.179Z,99.99
2017-09-14T10:42:20.184Z,99.99
2017-09-14T10:43:20.189Z,99.99
2017-09-14T10:44:19.838Z,99.99
2017-09-14T10:45:19.836Z,99.99
2017-09-14T10:46:19.812Z,99.99
2017-09-14T10:47:19.805Z,99.99
2017-09-14T10:48:19.797Z,99.99
2017-09-14T10:49:19.792Z,99.99
2017-09-14T10:50:19.812Z,99.99
2017-09-14T10:51:19.874Z,99.99
2017-09-14T10:52:19.947Z,99.99
2017-09-14T10:53:19.942Z,99.99
2017-09-14T10:54:20.334Z,99.99
2017-09-14T10:55:19.785Z,99.99
2017-09-14T10:56:19.877Z,99.99
2017-09-14T10:57:19.779Z,99.99
2017-09-14T10:58:19.815Z,99.99
2017-09-14T10:59:19.886Z,99.99
2017-09-14T11:00:19.806Z,99.99
2017-09-14T11:01:19.789Z,99.99
2017-09-14T11:02:20.246Z,99.99
2017-09-14T11:03:19.784Z,99.99
2017-09-14T11:04:20.091Z,99.99
2017-09-14T11:05:19.724Z,99.99
2017-09-14T11:06:20.152Z,99.99
2017-09-14T11:07:19.652Z,99.99
2017-09-14T11:08:19.629Z,99.99
2017-09-14T11:09:19.949Z,99.99
2017-09-14T11:10:19.949Z,99.99
2017-09-14T11:11:19.607Z,99.99
2017-09-14T11:12:19.598Z,99.99
2017-09-14T11:13:19.917Z,99.99
2017-09-14T11:14:19.603Z,99.99
2017-09-14T11:15:19.900Z,99.99
2017-09-14T11:16:19.577Z,99.99
2017-09-14T11:17:19.884Z,99.99
2017-09-14T11:18:19.552Z,99.99
2017-09-14T11:19:19.871Z,99.99
2017-09-14T11:20:19.531Z,99.99
2017-09-14T11:21:19.542Z,99.99
2017-09-14T11:22:19.513Z,99.99
2017-09-14T11:23:19.851Z,99.99
2017-09-14T11:24:19.516Z,99.99
2017-09-14T11:25:19.486Z,99.99
2017-09-14T11:26:19.811Z,99.99
2017-09-14T11:27:19.795Z,99.99
2017-09-14T11:28:19.471Z,99.99
2017-09-14T11:29:19.450Z,99.99
2017-09-14T11:30:19.446Z,99.99
2017-09-14T11:31:19.777Z,99.99
2017-09-14T11:32:19.754Z,99.99
2017-09-14T11:33:19.756Z,99.99
2017-09-14T11:34:19.735Z,99.99
2017-09-14T11:35:19.396Z,99.99
2017-09-14T11:36:19.386Z,99.99
2017-09-14T11:37:19.376Z,99.99
2017-09-14T11:38:19.372Z,99.99
2017-09-14T11:39:19.691Z,99.99
2017-09-14T11:40:19.355Z,99.99
2017-09-14T11:41:19.672Z,99.99
2017-09-14T11:42:19.660Z,99.99
2017-09-14T11:43:19.653Z,99.99
2017-09-14T11:44:19.641Z,99.99
2017-09-14T11:45:19.301Z,99.99
2017-09-14T11:46:19.620Z,99.99
2017-09-14T11:47:19.282Z,99.99
2017-09-14T11:48:19.297Z,99.99
2017-09-14T11:49:19.265Z,99.99
2017-09-14T11:50:19.266Z,99.99
2017-09-14T11:51:19.577Z,99.99
2017-09-14T11:52:19.237Z,99.99
2017-09-14T11:53:19.555Z,99.99
2017-09-14T11:54:19.219Z,99.99
2017-09-14T11:55:19.229Z,99.99
2017-09-14T11:56:19.527Z,99.99
2017-09-14T11:57:19.211Z,99.99
2017-09-14T11:58:19.181Z,99.99
2017-09-14T11:59:19.498Z,99.99
2017-09-14T12:00:19.163Z,99.99
2017-09-14T12:01:19.155Z,99.99
2017-09-14T12:02:19.473Z,99.99
2017-09-14T12:03:19.134Z,99.99
2017-09-14T12:04:19.125Z,99.99
2017-09-14T12:05:19.116Z,99.99
2017-09-14T12:06:19.432Z,99.99
2017-09-14T12:07:19.103Z,99.99
2017-09-14T12:08:19.089Z,99.99
2017-09-14T12:09:19.079Z,99.99
2017-09-14T12:10:19.417Z,99.99
2017-09-14T12:11:19.060Z,99.99
2017-09-14T12:12:19.053Z,99.99
2017-09-14T12:13:19.041Z,99.99
2017-09-14T12:14:19.045Z,99.99
2017-09-14T12:15:19.024Z,99.99
2017-09-14T12:16:19.013Z,99.99
2017-09-14T12:17:19.005Z,99.99
2017-09-14T12:18:19.000Z,99.99
2017-09-14T12:19:18.986Z,99.99
2017-09-14T12:20:18.979Z,99.99
2017-09-14T12:21:18.984Z,99.99
2017-09-14T12:22:18.961Z,99.99
2017-09-14T12:23:18.955Z,99.99
2017-09-14T12:24:18.954Z,99.99
2017-09-14T12:25:18.965Z,99.99
2017-09-14T12:26:18.945Z,99.99
2017-09-14T12:27:18.915Z,99.99
2017-09-14T12:28:19.233Z,99.99
2017-09-14T12:29:19.227Z,99.99
2017-09-14T12:30:18.890Z,99.99
2017-09-14T12:31:18.880Z,99.99
2017-09-14T12:32:18.886Z,99.99
2017-09-14T12:33:18.860Z,99.99
2017-09-14T12:34:18.853Z,99.99
2017-09-14T12:35:18.854Z,99.99
2017-09-14T12:36:18.834Z,99.99
2017-09-14T12:37:18.827Z,99.99
2017-09-14T12:38:18.818Z,99.99
2017-09-14T12:39:18.807Z,99.99
2017-09-14T12:40:18.800Z,99.99
2017-09-14T12:41:19.133Z,99.99
2017-09-14T12:42:18.794Z,99.99
2017-09-14T12:43:18.772Z,99.99
2017-09-14T12:44:18.766Z,99.99
2017-09-14T12:45:18.754Z,99.99
2017-09-14T12:46:19.078Z,99.99
2017-09-14T12:47:19.067Z,99.99
2017-09-14T12:48:19.060Z,99.99
2017-09-14T12:49:18.718Z,99.99
2017-09-14T12:50:18.712Z,99.99
2017-09-14T12:51:18.701Z,99.99
2017-09-14T12:52:19.021Z,99.99